Time;durP1;ratioP1;P1;durP2;ratioP2;P2;SDS_P1;SDS_P2;PMS_P1;PMS_P2;Temp;Humidity;BMP_temperature;BMP_pressure;BME280_temperature;BME280_humidity;BME280_pressure;Samples;Min_cycle;Max_cycle;Signal;HPM_P1;HPM_P2
2023/09/14 00:00:50;;;;;;;7.35;4.80;;;14.40;98.50;;;;;;5055324;28;20447;-74
2023/09/14 00:03:16;;;;;;;5.60;4.05;;;14.30;98.40;;;;;;5051167;28;20460;-76
2023/09/14 00:05:43;;;;;;;8.45;4.30;;;14.20;99.90;;;;;;5050891;28;20799;-76
2023/09/14 00:08:10;;;;;;;5.85;3.88;;;14.10;99.90;;;;;;5052204;28;20508;-73
2023/09/14 00:10:36;;;;;;;8.43;4.40;;;14.10;99.90;;;;;;5051819;28;20870;-75
2023/09/14 00:13:02;;;;;;;7.88;4.13;;;14.00;99.90;;;;;;5054356;28;20389;-75
2023/09/14 00:15:28;;;;;;;7.13;4.10;;;14.00;99.90;;;;;;5060584;28;20771;-73
2023/09/14 00:17:54;;;;;;;7.55;3.80;;;14.10;99.90;;;;;;5061162;28;20428;-75
2023/09/14 00:20:21;;;;;;;9.20;4.57;;;14.10;99.90;;;;;;5062903;28;20432;-75
2023/09/14 00:22:51;;;;;;;6.80;4.03;;;14.10;99.90;;;;;;5059130;28;20381;-75
2023/09/14 00:25:18;;;;;;;11.27;4.80;;;14.20;99.90;;;;;;5058272;28;20785;-75
2023/09/14 00:27:43;;;;;;;6.07;4.10;;;14.20;98.70;;;;;;5054643;28;20405;-73
2023/09/14 00:30:09;;;;;;;9.70;4.10;;;14.20;98.50;;;;;;5051696;28;20539;-73
2023/09/14 00:32:39;;;;;;;9.75;4.63;;;14.20;96.30;;;;;;5050482;28;20389;-75
2023/09/14 00:35:06;;;;;;;9.70;4.53;;;14.20;97.70;;;;;;5050712;28;20408;-74
2023/09/14 00:37:32;;;;;;;7.18;4.28;;;14.20;97.50;;;;;;5032783;28;20481;-74
2023/09/14 00:39:58;;;;;;;11.02;4.15;;;14.30;95.60;;;;;;5050966;28;20465;-74
2023/09/14 00:42:23;;;;;;;13.15;4.38;;;14.20;96.10;;;;;;5050871;28;20759;-74
2023/09/14 00:44:49;;;;;;;8.20;4.63;;;14.10;97.70;;;;;;5051324;28;20830;-73
2023/09/14 00:47:15;;;;;;;5.67;4.03;;;14.00;99.50;;;;;;5053644;28;20409;-74
2023/09/14 00:49:41;;;;;;;8.75;4.30;;;14.10;97.40;;;;;;5058126;28;20965;-75
2023/09/14 00:52:10;;;;;;;7.97;4.10;;;14.20;96.70;;;;;;5054981;28;20385;-75
2023/09/14 00:54:39;;;;;;;10.87;4.87;;;14.00;96.90;;;;;;5059703;28;20456;-73
2023/09/14 00:57:05;;;;;;;9.95;4.72;;;13.80;99.70;;;;;;5056707;28;20385;-74
2023/09/14 00:59:31;;;;;;;11.17;5.10;;;13.70;99.90;;;;;;5054549;28;20385;-74
2023/09/14 01:01:57;;;;;;;9.05;4.43;;;13.80;99.90;;;;;;5054208;28;20854;-74
2023/09/14 01:04:22;;;;;;;8.98;5.05;;;13.70;99.90;;;;;;5054349;28;20393;-74
2023/09/14 01:06:49;;;;;;;8.10;4.70;;;13.80;99.90;;;;;;5054299;28;20920;-74
2023/09/14 01:09:14;;;;;;;9.73;4.43;;;13.70;99.90;;;;;;5054850;28;20982;-74
2023/09/14 01:11:40;;;;;;;10.00;4.67;;;13.60;99.90;;;;;;5054905;28;20381;-74
2023/09/14 01:14:36;;;;;;;9.57;5.20;;;13.40;99.90;;;;;;5037283;28;20882;-74
2023/09/14 01:17:08;;;;;;;8.38;4.70;;;13.40;99.90;;;;;;5051189;28;20925;-74
2023/09/14 01:19:54;;;;;;;10.25;4.60;;;13.40;99.90;;;;;;5055772;28;20604;-75
2023/09/14 01:22:57;;;;;;;10.25;4.90;;;13.30;99.90;;;;;;5055418;28;20762;-75
2023/09/14 01:25:42;;;;;;;10.68;4.38;;;13.30;99.90;;;;;;5054382;28;20387;-75
2023/09/14 01:28:12;;;;;;;7.68;4.20;;;13.10;99.90;;;;;;5054638;28;20413;-74
2023/09/14 01:30:38;;;;;;;12.80;4.90;;;13.10;99.90;;;;;;5054545;28;20802;-74
2023/09/14 01:33:12;;;;;;;10.10;4.70;;;13.10;99.90;;;;;;5054896;28;20380;-75
2023/09/14 01:35:46;;;;;;;7.13;4.60;;;13.00;99.90;;;;;;5055666;28;20464;-75
2023/09/14 01:38:13;;;;;;;10.15;4.80;;;13.00;99.90;;;;;;5054861;28;20385;-75
2023/09/14 01:40:40;;;;;;;10.07;4.35;;;12.90;99.90;;;;;;5053772;28;20381;-74
2023/09/14 01:43:07;;;;;;;5.93;4.15;;;12.90;99.90;;;;;;5053622;28;20396;-74
2023/09/14 01:45:33;;;;;;;8.32;4.70;;;12.90;99.90;;;;;;5054009;28;20385;-74
2023/09/14 01:48:00;;;;;;;8.10;4.75;;;12.80;99.90;;;;;;5053767;28;20402;-74
2023/09/14 01:50:25;;;;;;;8.00;4.55;;;12.80;99.90;;;;;;5053908;28;20400;-74
2023/09/14 01:52:52;;;;;;;9.63;4.40;;;12.90;99.90;;;;;;5054096;28;20802;-74
2023/09/14 01:55:18;;;;;;;5.90;4.18;;;12.90;99.90;;;;;;5053977;28;20787;-74
2023/09/14 01:57:45;;;;;;;8.77;4.95;;;12.90;99.90;;;;;;5054633;28;20472;-74
2023/09/14 02:00:11;;;;;;;10.20;4.90;;;12.90;99.90;;;;;;5052444;28;20392;-75
2023/09/14 02:02:36;;;;;;;8.10;4.57;;;12.90;99.90;;;;;;5053197;28;20451;-73
2023/09/14 02:05:02;;;;;;;11.73;4.60;;;12.90;99.90;;;;;;5053334;28;20385;-73
2023/09/14 02:07:28;;;;;;;9.85;4.82;;;12.80;99.90;;;;;;5053372;28;20413;-75
2023/09/14 02:09:53;;;;;;;8.90;4.80;;;14.70;99.90;;;;;;5035722;28;20944;-75
2023/09/14 02:12:20;;;;;;;9.35;4.90;;;12.70;99.90;;;;;;5053190;28;20384;-75
2023/09/14 02:14:46;;;;;;;13.77;4.50;;;12.60;99.90;;;;;;5053155;28;20447;-74
2023/09/14 02:17:11;;;;;;;8.98;5.05;;;12.60;99.90;;;;;;5053199;28;20389;-75
2023/09/14 02:19:37;;;;;;;8.85;4.20;;;12.70;99.90;;;;;;5035089;28;20465;-75
2023/09/14 02:22:03;;;;;;;9.23;4.23;;;12.70;99.90;;;;;;5052827;28;20420;-75
2023/09/14 02:24:28;;;;;;;9.40;4.75;;;12.60;99.90;;;;;;5053296;28;20423;-74
2023/09/14 02:26:54;;;;;;;10.87;4.50;;;12.60;99.90;;;;;;5053213;28;20424;-74
2023/09/14 02:29:20;;;;;;;11.50;4.80;;;12.60;99.90;;;;;;5053114;28;20438;-74
2023/09/14 02:31:46;;;;;;;8.02;4.30;;;12.70;99.90;;;;;;5052853;28;20385;-74
2023/09/14 02:34:11;;;;;;;8.32;5.15;;;12.60;99.90;;;;;;5052821;28;20388;-75
2023/09/14 02:36:38;;;;;;;7.00;4.30;;;12.60;99.90;;;;;;5052902;28;20470;-75
2023/09/14 02:39:04;;;;;;;6.57;4.15;;;12.60;99.90;;;;;;5034936;28;20388;-76
2023/09/14 02:41:29;;;;;;;12.35;4.20;;;12.60;99.90;;;;;;5052499;28;20826;-74
2023/09/14 02:43:55;;;;;;;11.50;4.50;;;12.60;99.90;;;;;;5053171;28;20385;-74
2023/09/14 02:46:20;;;;;;;10.77;4.30;;;12.50;99.90;;;;;;5052172;28;20424;-74
2023/09/14 02:48:46;;;;;;;8.17;4.33;;;12.50;99.90;;;;;;5052235;28;20390;-74
2023/09/14 02:51:11;;;;;;;10.13;4.73;;;12.60;99.90;;;;;;5052426;28;20397;-74
2023/09/14 02:53:37;;;;;;;10.43;4.83;;;12.60;99.90;;;;;;5052763;28;20412;-74
2023/09/14 02:56:11;;;;;;;9.50;4.30;;;12.50;99.90;;;;;;5053091;28;20935;-74
2023/09/14 02:58:37;;;;;;;8.10;4.22;;;12.50;99.90;;;;;;5052845;28;20381;-74
2023/09/14 03:01:08;;;;;;;9.55;4.10;;;12.70;99.90;;;;;;5052213;28;20884;-74
2023/09/14 03:03:38;;;;;;;6.75;4.00;;;13.00;99.90;;;;;;5052323;28;20465;-74
2023/09/14 03:06:04;;;;;;;9.15;4.05;;;12.80;99.90;;;;;;5052951;28;20455;-75
2023/09/14 03:08:30;;;;;;;9.20;4.70;;;12.80;99.90;;;;;;5052159;28;20409;-75
2023/09/14 03:10:56;;;;;;;8.60;4.50;;;12.70;99.90;;;;;;5051751;28;20881;-75
2023/09/14 03:13:22;;;;;;;8.25;4.88;;;12.70;99.90;;;;;;5034022;28;20808;-74
2023/09/14 03:15:55;;;;;;;9.63;4.97;;;12.70;99.90;;;;;;5051935;28;20435;-75
2023/09/14 03:18:21;;;;;;;12.13;5.20;;;12.70;99.90;;;;;;5034157;28;20421;-75
2023/09/14 03:20:50;;;;;;;12.47;5.13;;;12.70;99.90;;;;;;5052112;28;20920;-75
2023/09/14 03:23:16;;;;;;;10.52;4.70;;;12.70;99.90;;;;;;5053841;28;20396;-75
2023/09/14 03:25:42;;;;;;;6.65;4.80;;;12.70;99.90;;;;;;5052355;28;20381;-76
2023/09/14 03:28:08;;;;;;;10.82;5.40;;;12.60;99.90;;;;;;5033553;28;20405;-76
2023/09/14 03:30:35;;;;;;;12.77;5.50;;;12.60;99.90;;;;;;5051837;28;20373;-75
2023/09/14 03:33:00;;;;;;;10.33;5.13;;;12.70;99.90;;;;;;5052580;28;20389;-76
2023/09/14 03:35:26;;;;;;;11.10;5.03;;;12.70;99.90;;;;;;5053441;28;20506;-77
2023/09/14 03:37:51;;;;;;;19.93;6.07;;;12.60;99.90;;;;;;5059615;28;20389;-77
2023/09/14 03:40:17;;;;;;;15.45;6.00;;;12.60;99.90;;;;;;5059396;28;20449;-77
2023/09/14 03:42:42;;;;;;;14.48;6.15;;;12.50;99.90;;;;;;5041180;28;20394;-76
2023/09/14 03:45:09;;;;;;;15.15;6.10;;;12.50;99.90;;;;;;5059578;28;20460;-76
2023/09/14 03:47:34;;;;;;;13.55;6.00;;;12.50;99.90;;;;;;5056418;28;20405;-76
2023/09/14 03:50:00;;;;;;;12.15;5.70;;;12.50;99.90;;;;;;5057717;28;20388;-76
2023/09/14 03:52:25;;;;;;;17.38;5.82;;;12.50;99.90;;;;;;5060015;28;20739;-77
2023/09/14 03:54:51;;;;;;;11.70;5.70;;;12.50;99.90;;;;;;5056105;28;20476;-77
2023/09/14 03:57:16;;;;;;;12.97;6.00;;;12.50;99.90;;;;;;5053683;28;20382;-77
2023/09/14 03:59:43;;;;;;;11.10;5.40;;;12.60;99.90;;;;;;5054341;28;20386;-76
2023/09/14 04:02:09;;;;;;;12.73;6.45;;;12.60;99.90;;;;;;5053571;28;20417;-75
2023/09/14 04:04:35;;;;;;;11.68;5.47;;;12.70;99.90;;;;;;5053886;28;20435;-75
2023/09/14 04:07:01;;;;;;;15.60;5.93;;;12.80;99.90;;;;;;5052950;28;20813;-77
2023/09/14 04:09:29;;;;;;;12.17;6.13;;;13.00;99.90;;;;;;5053709;28;20381;-77
2023/09/14 04:11:56;;;;;;;13.02;5.78;;;13.00;99.90;;;;;;5055398;28;20409;-74
2023/09/14 04:14:22;;;;;;;17.83;6.22;;;12.90;99.90;;;;;;5054887;28;20428;-77
2023/09/14 04:16:47;;;;;;;13.45;5.60;;;12.90;99.90;;;;;;5054102;28;20386;-76
2023/09/14 04:19:14;;;;;;;9.40;5.03;;;13.00;99.90;;;;;;5035451;28;20404;-76
2023/09/14 04:21:43;;;;;;;12.88;6.10;;;13.00;99.90;;;;;;5053350;28;20393;-76
2023/09/14 04:24:09;;;;;;;13.70;5.63;;;13.00;99.90;;;;;;5052586;28;20392;-76
2023/09/14 04:26:36;;;;;;;17.75;5.70;;;13.00;99.90;;;;;;5054782;28;20405;-76
2023/09/14 04:29:02;;;;;;;13.52;5.80;;;13.00;99.90;;;;;;5058118;28;20492;-76
2023/09/14 04:31:27;;;;;;;11.70;6.10;;;13.00;99.90;;;;;;5058105;28;20393;-76
2023/09/14 04:33:53;;;;;;;11.17;5.30;;;13.00;99.90;;;;;;5037283;28;20878;-75
2023/09/14 04:36:18;;;;;;;11.67;5.60;;;13.10;99.90;;;;;;5054144;28;20397;-77
2023/09/14 04:38:44;;;;;;;12.68;5.40;;;13.10;99.90;;;;;;5053366;28;20396;-76
2023/09/14 04:41:10;;;;;;;17.80;5.68;;;13.30;99.90;;;;;;5053347;28;20416;-76
2023/09/14 04:43:36;;;;;;;12.93;5.55;;;13.50;99.90;;;;;;5055227;28;20412;-76
2023/09/14 04:46:04;;;;;;;12.75;5.10;;;13.70;99.90;;;;;;5058299;28;20384;-76
2023/09/14 04:48:30;;;;;;;14.93;5.60;;;13.70;99.90;;;;;;5059661;28;20417;-75
2023/09/14 04:50:57;;;;;;;17.17;5.82;;;13.70;99.90;;;;;;5060216;28;20389;-75
2023/09/14 04:53:25;;;;;;;15.65;5.95;;;13.50;99.90;;;;;;5043734;28;20386;-77
2023/09/14 04:55:50;;;;;;;10.90;5.90;;;13.50;99.90;;;;;;5063634;28;20382;-76
2023/09/14 04:58:16;;;;;;;12.80;5.97;;;13.40;99.90;;;;;;5039954;28;20393;-77
2023/09/14 05:00:42;;;;;;;12.18;6.90;;;13.50;99.90;;;;;;5066659;28;20439;-76
2023/09/14 05:03:07;;;;;;;16.60;6.77;;;13.40;99.90;;;;;;5048193;28;20389;-76
2023/09/14 05:05:33;;;;;;;10.33;6.60;;;13.40;99.90;;;;;;5047882;28;20432;-76
2023/09/14 05:07:59;;;;;;;10.80;6.03;;;13.40;99.90;;;;;;5064353;28;20952;-77
2023/09/14 05:10:28;;;;;;;14.90;6.27;;;13.40;99.90;;;;;;5055464;28;20385;-76
2023/09/14 05:12:54;;;;;;;15.68;6.45;;;13.40;99.90;;;;;;5062741;28;20934;-77
2023/09/14 05:15:19;;;;;;;15.50;6.73;;;13.40;99.90;;;;;;5063654;28;20381;-76
2023/09/14 05:17:45;;;;;;;12.17;6.60;;;13.40;99.90;;;;;;5058346;28;20429;-76
2023/09/14 05:20:11;;;;;;;13.43;6.43;;;13.40;99.90;;;;;;5055760;28;20814;-76
2023/09/14 05:22:38;;;;;;;13.40;6.53;;;13.40;99.90;;;;;;5053820;28;20381;-75
2023/09/14 05:25:04;;;;;;;14.18;6.32;;;13.50;99.90;;;;;;5054511;28;20778;-77
2023/09/14 05:27:41;;;;;;;15.18;7.00;;;13.60;99.90;;;;;;5057024;28;20458;-77
2023/09/14 05:30:10;;;;;;;14.50;7.72;;;13.70;99.90;;;;;;5054625;28;20464;-76
2023/09/14 05:32:36;;;;;;;16.45;7.40;;;13.70;99.90;;;;;;5053678;28;20386;-77
2023/09/14 05:35:02;;;;;;;14.55;6.97;;;13.60;99.90;;;;;;5057600;28;20843;-77
2023/09/14 05:37:28;;;;;;;16.38;9.50;;;13.60;99.90;;;;;;5058577;28;20385;-76
2023/09/14 05:39:54;;;;;;;61.92;38.20;;;13.70;99.90;;;;;;5058388;28;20389;-77
2023/09/14 05:42:21;;;;;;;39.25;20.70;;;13.90;99.90;;;;;;5057628;28;20385;-77
2023/09/14 05:44:48;;;;;;;34.88;20.02;;;13.90;99.90;;;;;;5058637;28;20382;-75
2023/09/14 05:47:14;;;;;;;15.35;7.70;;;13.90;99.30;;;;;;5057585;28;20857;-77
2023/09/14 05:49:40;;;;;;;24.23;11.80;;;13.80;99.00;;;;;;5059431;28;20401;-76
2023/09/14 05:52:05;;;;;;;21.30;10.05;;;13.70;99.90;;;;;;5056455;28;20381;-76
2023/09/14 05:54:31;;;;;;;18.48;8.20;;;13.80;99.90;;;;;;5060649;28;20421;-77
2023/09/14 05:56:56;;;;;;;17.67;7.30;;;13.70;99.90;;;;;;5058300;28;20449;-77
2023/09/14 05:59:22;;;;;;;17.67;7.70;;;13.60;99.90;;;;;;5056233;28;20389;-76
2023/09/14 06:01:48;;;;;;;16.17;8.00;;;13.60;99.90;;;;;;5055152;28;20863;-76
2023/09/14 06:04:13;;;;;;;19.23;8.48;;;13.60;99.90;;;;;;5057282;28;20397;-75
2023/09/14 06:06:39;;;;;;;15.98;7.88;;;13.60;99.90;;;;;;5054959;28;20535;-76
2023/09/14 06:09:05;;;;;;;19.02;8.00;;;13.60;99.90;;;;;;5055344;28;20809;-77
2023/09/14 06:11:30;;;;;;;19.43;8.00;;;13.80;99.90;;;;;;5055726;28;20797;-76
2023/09/14 06:13:56;;;;;;;16.20;7.80;;;13.80;99.90;;;;;;5056344;28;20401;-76
2023/09/14 06:16:22;;;;;;;17.17;8.93;;;13.90;99.90;;;;;;5035708;28;20523;-76
2023/09/14 06:18:47;;;;;;;19.83;8.40;;;13.80;99.90;;;;;;5054453;28;20473;-76
2023/09/14 06:21:13;;;;;;;16.63;8.23;;;13.90;99.90;;;;;;5054495;28;20957;-76
2023/09/14 06:23:41;;;;;;;16.20;8.40;;;13.90;99.90;;;;;;5032158;28;20402;-76
2023/09/14 06:26:07;;;;;;;20.70;8.70;;;14.00;99.90;;;;;;5052123;28;20404;-77
2023/09/14 06:28:32;;;;;;;15.43;7.50;;;14.10;99.90;;;;;;5055922;28;20409;-77
2023/09/14 06:30:59;;;;;;;20.50;8.53;;;14.20;99.90;;;;;;5055301;28;20974;-75
2023/09/14 06:33:24;;;;;;;18.60;8.60;;;14.30;99.90;;;;;;5032965;28;20403;-77
2023/09/14 06:35:50;;;;;;;18.20;8.97;;;14.40;98.50;;;;;;5044202;28;20397;-74
2023/09/14 06:38:15;;;;;;;18.37;9.10;;;14.50;93.00;;;;;;5055929;28;20744;-76
2023/09/14 06:40:41;;;;;;;17.42;8.93;;;14.60;92.00;;;;;;5059931;28;20472;-77
2023/09/14 06:43:07;;;;;;;17.70;10.00;;;14.70;87.70;;;;;;5061848;28;20420;-77
2023/09/14 06:45:33;;;;;;;16.83;9.20;;;14.80;89.30;;;;;;5057441;28;20477;-75
2023/09/14 06:47:59;;;;;;;18.50;8.93;;;15.00;88.50;;;;;;5058056;28;20497;-76
2023/09/14 06:50:24;;;;;;;19.58;9.77;;;15.20;83.90;;;;;;5059284;28;20390;-77
2023/09/14 06:52:50;;;;;;;16.80;8.50;;;15.20;83.40;;;;;;5058805;28;20440;-77
2023/09/14 06:55:15;;;;;;;17.10;9.23;;;15.30;82.90;;;;;;5054439;28;20408;-75
2023/09/14 06:57:41;;;;;;;23.00;10.32;;;15.40;80.90;;;;;;5054137;28;20416;-76
2023/09/14 07:00:13;;;;;;;22.85;11.05;;;15.40;76.30;;;;;;5054456;28;20484;-76
2023/09/14 07:02:40;;;;;;;20.63;9.77;;;15.50;75.90;;;;;;5040578;28;20467;-76
2023/09/14 07:05:06;;;;;;;22.83;10.32;;;15.60;75.10;;;;;;5053423;28;20732;-76
2023/09/14 07:07:31;;;;;;;26.95;13.10;;;15.70;71.80;;;;;;5053151;28;20404;-78
2023/09/14 07:09:57;;;;;;;25.33;11.80;;;15.80;73.10;;;;;;5052417;28;20779;-75
2023/09/14 07:12:22;;;;;;;24.40;11.50;;;16.60;70.40;;;;;;5045517;28;20399;-75
2023/09/14 07:14:48;;;;;;;24.50;10.40;;;16.10;67.60;;;;;;5035057;28;20735;-75
2023/09/14 07:17:14;;;;;;;21.42;10.18;;;16.20;60.90;;;;;;5046098;28;20390;-75
2023/09/14 07:19:39;;;;;;;21.35;9.80;;;16.20;60.60;;;;;;5050795;28;20396;-75
2023/09/14 07:22:05;;;;;;;20.93;9.80;;;16.30;60.80;;;;;;5040354;28;20412;-75
2023/09/14 07:24:32;;;;;;;19.98;9.43;;;16.30;60.00;;;;;;5050335;28;20396;-75
2023/09/14 07:26:59;;;;;;;14.75;9.23;;;16.40;60.30;;;;;;5049869;28;20551;-76
2023/09/14 07:29:26;;;;;;;17.08;9.25;;;16.50;59.40;;;;;;5048025;28;20463;-75
2023/09/14 07:31:52;;;;;;;17.77;9.70;;;16.50;57.70;;;;;;5050999;28;20396;-76
2023/09/14 07:34:17;;;;;;;20.95;9.75;;;16.50;56.80;;;;;;5051328;28;20870;-75
2023/09/14 07:36:43;;;;;;;12.93;8.93;;;16.60;56.10;;;;;;5051692;28;20411;-76
2023/09/14 07:39:09;;;;;;;18.30;9.80;;;16.60;55.70;;;;;;5036344;28;20878;-77
2023/09/14 07:41:34;;;;;;;18.52;9.82;;;16.60;53.70;;;;;;5057814;28;20435;-77
2023/09/14 07:44:00;;;;;;;15.77;9.60;;;16.70;53.60;;;;;;5054356;28;20852;-75
2023/09/14 07:46:26;;;;;;;19.20;10.60;;;16.60;54.20;;;;;;5056372;28;20465;-76
2023/09/14 07:48:52;;;;;;;25.10;9.68;;;16.70;54.60;;;;;;5041330;28;20425;-75
2023/09/14 07:51:17;;;;;;;14.80;9.30;;;16.70;54.50;;;;;;5056182;28;20377;-77
2023/09/14 07:53:43;;;;;;;17.85;9.00;;;16.90;55.20;;;;;;5061542;28;20495;-76
2023/09/14 07:56:08;;;;;;;20.42;10.55;;;17.00;54.80;;;;;;5055943;28;20389;-76
2023/09/14 07:58:34;;;;;;;17.10;9.20;;;17.20;52.60;;;;;;5052009;28;20563;-77
2023/09/14 08:00:59;;;;;;;21.33;9.37;;;17.10;49.90;;;;;;5057192;28;20399;-76
2023/09/14 08:03:26;;;;;;;19.55;10.00;;;17.10;49.70;;;;;;5061775;28;20449;-76
2023/09/14 08:05:52;;;;;;;20.35;9.93;;;17.20;49.90;;;;;;5058616;28;20420;-76
2023/09/14 08:08:18;;;;;;;17.13;9.67;;;17.30;48.60;;;;;;5054142;28;20413;-76
2023/09/14 08:10:53;;;;;;;15.00;9.43;;;17.20;48.60;;;;;;5038041;28;20387;-77
2023/09/14 08:13:19;;;;;;;17.88;9.23;;;17.40;48.10;;;;;;5031194;28;20391;-76
2023/09/14 08:15:45;;;;;;;15.00;9.40;;;17.50;46.90;;;;;;5031838;28;20423;-77
2023/09/14 08:18:11;;;;;;;19.53;11.47;;;17.60;47.40;;;;;;5014510;28;20473;-76
2023/09/14 08:20:44;;;;;;;17.30;9.77;;;17.70;46.40;;;;;;5031815;28;20437;-76
2023/09/14 08:23:15;;;;;;;16.60;9.98;;;17.90;45.30;;;;;;5046933;28;20396;-77
2023/09/14 08:25:45;;;;;;;14.90;9.50;;;18.00;45.20;;;;;;5051415;28;20389;-76
2023/09/14 08:28:14;;;;;;;15.13;9.23;;;18.10;44.40;;;;;;5032885;28;20428;-77
2023/09/14 08:30:40;;;;;;;17.58;10.30;;;18.10;44.60;;;;;;5058557;28;20373;-77
2023/09/14 08:33:07;;;;;;;20.45;10.25;;;18.20;43.30;;;;;;5060971;28;20396;-77
2023/09/14 08:35:34;;;;;;;18.30;9.85;;;18.40;43.40;;;;;;5062018;28;20402;-76
2023/09/14 08:38:03;;;;;;;20.65;10.52;;;18.40;43.50;;;;;;5065374;28;20470;-76
2023/09/14 08:40:30;;;;;;;21.92;11.55;;;18.50;42.40;;;;;;5045478;28;20401;-77
2023/09/14 08:42:57;;;;;;;18.17;8.77;;;18.60;43.40;;;;;;5057868;28;20424;-76
2023/09/14 08:45:27;;;;;;;18.23;10.30;;;19.00;42.20;;;;;;5063397;28;20400;-76
2023/09/14 08:47:54;;;;;;;20.20;10.63;;;18.90;40.80;;;;;;5061105;28;20508;-76
2023/09/14 08:50:23;;;;;;;20.70;10.85;;;18.90;40.80;;;;;;5063340;28;21004;-77
2023/09/14 08:52:49;;;;;;;14.68;9.63;;;18.90;40.90;;;;;;5061073;28;20401;-77
2023/09/14 08:55:18;;;;;;;18.03;9.60;;;19.10;40.80;;;;;;5035239;28;20386;-77
2023/09/14 08:57:45;;;;;;;20.58;10.90;;;19.20;40.10;;;;;;5057835;28;20408;-76
2023/09/14 09:00:15;;;;;;;18.23;9.93;;;19.30;39.00;;;;;;5060569;28;20804;-77
2023/09/14 09:02:48;;;;;;;20.08;10.00;;;19.50;38.40;;;;;;5057985;28;20437;-77
2023/09/14 09:05:16;;;;;;;15.15;9.00;;;19.60;38.50;;;;;;5059163;28;20750;-77
2023/09/14 09:07:43;;;;;;;21.23;9.60;;;19.80;38.00;;;;;;5049380;28;20409;-74
2023/09/14 09:10:25;;;;;;;13.70;9.80;;;20.10;37.50;;;;;;5051862;28;20401;-75
2023/09/14 09:12:58;;;;;;;16.65;9.40;;;20.20;37.00;;;;;;5053946;28;20464;-75
2023/09/14 09:15:26;;;;;;;14.80;9.15;;;20.30;36.80;;;;;;5059154;28;20403;-75
2023/09/14 09:18:02;;;;;;;12.85;7.90;;;20.40;35.60;;;;;;5054768;28;20399;-75
2023/09/14 09:20:29;;;;;;;15.50;8.70;;;20.60;34.70;;;;;;5038378;28;20410;-76
2023/09/14 09:23:01;;;;;;;17.95;8.75;;;21.00;34.00;;;;;;5062164;28;20385;-75
2023/09/14 09:25:31;;;;;;;15.80;8.60;;;21.30;32.20;;;;;;5053932;28;20393;-76
2023/09/14 09:28:01;;;;;;;15.02;7.60;;;21.30;30.80;;;;;;5034739;28;20411;-76
2023/09/14 09:30:31;;;;;;;12.23;8.02;;;21.50;31.20;;;;;;5033843;28;20454;-76
2023/09/14 09:32:56;;;;;;;13.85;8.18;;;21.70;30.70;;;;;;5034082;28;20902;-75
2023/09/14 09:35:23;;;;;;;12.00;6.70;;;21.90;29.20;;;;;;5034181;28;20477;-75
2023/09/14 09:37:51;;;;;;;10.80;6.40;;;21.90;29.80;;;;;;5033949;28;20383;-74
2023/09/14 09:40:21;;;;;;;10.80;5.63;;;22.20;28.30;;;;;;5032226;28;20906;-76
2023/09/14 09:42:48;;;;;;;10.07;5.55;;;22.40;26.70;;;;;;5033113;28;20391;-76
2023/09/14 09:45:14;;;;;;;10.93;5.50;;;22.40;26.90;;;;;;5033589;28;20383;-76
2023/09/14 09:47:41;;;;;;;10.30;6.13;;;22.40;26.50;;;;;;5033289;28;20399;-75
2023/09/14 09:50:14;;;;;;;11.80;6.00;;;22.10;26.10;;;;;;5034031;28;20745;-75
2023/09/14 09:52:42;;;;;;;12.88;6.03;;;21.90;27.00;;;;;;5033392;28;20433;-75
2023/09/14 09:55:21;;;;;;;12.75;6.05;;;21.70;27.00;;;;;;5033562;28;20386;-75
2023/09/14 09:57:54;;;;;;;14.98;6.82;;;21.80;26.80;;;;;;5033958;28;20872;-75
2023/09/14 10:00:21;;;;;;;15.48;8.50;;;21.60;28.20;;;;;;5033400;28;20752;-75
2023/09/14 10:02:53;;;;;;;18.40;8.48;;;21.30;28.90;;;;;;5034087;28;20391;-76
2023/09/14 10:05:29;;;;;;;14.25;7.70;;;21.20;29.40;;;;;;5031755;28;20514;-76
2023/09/14 10:07:57;;;;;;;14.30;8.25;;;21.20;29.40;;;;;;5032950;28;20418;-76
2023/09/14 10:10:25;;;;;;;13.50;7.72;;;21.40;28.90;;;;;;5033107;28;20993;-76
2023/09/14 10:12:55;;;;;;;13.63;8.48;;;21.40;28.60;;;;;;5032754;28;20384;-75
2023/09/14 10:15:24;;;;;;;10.75;7.70;;;21.30;29.40;;;;;;5033295;28;20400;-75
2023/09/14 10:17:53;;;;;;;14.27;8.25;;;21.30;28.60;;;;;;5052360;28;20433;-75
2023/09/14 10:20:19;;;;;;;16.05;10.60;;;21.30;28.90;;;;;;5051760;28;20451;-75
2023/09/14 10:22:47;;;;;;;25.67;15.50;;;21.80;29.10;;;;;;5051056;28;20876;-75
2023/09/14 10:25:14;;;;;;;18.75;12.02;;;22.10;28.80;;;;;;5052712;28;20488;-75
2023/09/14 10:27:40;;;;;;;16.50;10.30;;;22.10;28.80;;;;;;5052641;28;20409;-76
2023/09/14 10:30:08;;;;;;;16.85;8.13;;;21.80;27.90;;;;;;5052658;28;20396;-75
2023/09/14 10:32:36;;;;;;;15.00;5.20;;;21.70;27.60;;;;;;5034798;28;20387;-77
2023/09/14 10:35:03;;;;;;;12.25;6.80;;;21.80;27.20;;;;;;5051896;28;20404;-75
2023/09/14 10:37:30;;;;;;;14.30;7.60;;;22.00;26.00;;;;;;5049483;28;20401;-76
2023/09/14 10:39:57;;;;;;;12.75;7.78;;;21.80;27.20;;;;;;5056058;28;20989;-75
2023/09/14 10:42:23;;;;;;;10.93;6.25;;;21.80;26.30;;;;;;5051378;28;20472;-75
2023/09/14 10:44:49;;;;;;;15.20;7.95;;;21.60;27.90;;;;;;5054269;28;20877;-76
2023/09/14 10:47:18;;;;;;;14.75;7.85;;;21.70;27.20;;;;;;5055105;28;20507;-76
2023/09/14 10:49:44;;;;;;;15.10;7.93;;;21.70;27.80;;;;;;5054969;28;20465;-76
2023/09/14 10:52:10;;;;;;;13.75;8.18;;;21.60;27.20;;;;;;5063834;28;21039;-77
2023/09/14 10:54:36;;;;;;;14.40;7.77;;;21.40;27.90;;;;;;5053808;28;20405;-77
2023/09/14 10:57:13;;;;;;;13.40;8.10;;;21.30;28.20;;;;;;5068718;28;20398;-77
2023/09/14 10:59:50;;;;;;;15.80;10.30;;;21.40;29.70;;;;;;5071605;28;20381;-77
2023/09/14 11:02:38;;;;;;;15.50;9.13;;;21.60;28.90;;;;;;5061887;28;20385;-78
2023/09/14 11:05:15;;;;;;;20.90;8.90;;;21.50;28.00;;;;;;5067402;28;20404;-78
2023/09/14 11:07:44;;;;;;;12.60;7.97;;;21.40;28.10;;;;;;5055839;28;20402;-78
2023/09/14 11:10:15;;;;;;;12.38;8.02;;;21.40;28.20;;;;;;5038392;28;20405;-78
2023/09/14 11:12:41;;;;;;;15.85;8.27;;;21.40;28.10;;;;;;5056051;28;20823;-78
2023/09/14 11:15:14;;;;;;;10.43;7.50;;;21.50;27.80;;;;;;5055322;28;20417;-77
2023/09/14 11:17:55;;;;;;;15.18;8.40;;;21.60;26.80;;;;;;5036047;28;20386;-78
2023/09/14 11:20:27;;;;;;;16.15;7.80;;;21.40;27.30;;;;;;5053424;28;20392;-77
2023/09/14 11:22:57;;;;;;;12.73;8.35;;;21.20;27.00;;;;;;5055953;28;20385;-78
2023/09/14 11:25:32;;;;;;;11.75;6.57;;;21.50;26.30;;;;;;5054471;28;20957;-78
2023/09/14 11:27:57;;;;;;;13.13;7.00;;;21.50;26.10;;;;;;5054121;28;20433;-79
2023/09/14 11:30:27;;;;;;;14.23;7.30;;;21.30;26.40;;;;;;5054640;28;20384;-79
2023/09/14 11:32:59;;;;;;;9.52;6.32;;;21.40;26.70;;;;;;5035921;28;20381;-78
2023/09/14 11:35:39;;;;;;;11.15;7.20;;;21.50;25.80;;;;;;5054987;28;20381;-78
2023/09/14 11:38:14;;;;;;;13.35;7.70;;;21.90;24.00;;;;;;5059860;28;20863;-79
2023/09/14 11:40:40;;;;;;;17.77;8.90;;;21.60;25.00;;;;;;5059387;28;20398;-78
2023/09/14 11:43:20;;;;;;;17.27;9.10;;;21.50;25.20;;;;;;5055040;28;20389;-77
2023/09/14 11:45:55;;;;;;;15.95;9.30;;;21.60;25.90;;;;;;5036492;28;20401;-79
2023/09/14 11:48:20;;;;;;;17.85;9.60;;;22.20;23.90;;;;;;5057044;28;20406;-79
2023/09/14 11:50:50;;;;;;;11.50;8.32;;;22.50;23.40;;;;;;5040629;28;20491;-78
2023/09/14 11:53:18;;;;;;;13.63;9.40;;;22.60;22.70;;;;;;5054732;28;20377;-78
2023/09/14 11:55:45;;;;;;;12.93;9.30;;;22.70;23.30;;;;;;5052685;28;20400;-78
2023/09/14 11:58:12;;;;;;;13.30;9.40;;;22.80;21.10;;;;;;5056062;28;20385;-78
2023/09/14 12:00:44;;;;;;;13.07;9.20;;;22.70;21.50;;;;;;5052136;28;20378;-77
2023/09/14 12:03:10;;;;;;;12.95;8.20;;;22.70;21.90;;;;;;5052693;28;20434;-77
2023/09/14 12:05:37;;;;;;;14.50;9.13;;;22.40;23.00;;;;;;5054993;28;20397;-79
2023/09/14 12:08:12;;;;;;;12.38;9.00;;;22.10;24.80;;;;;;5038358;28;20433;-78
2023/09/14 12:10:39;;;;;;;12.80;8.60;;;22.20;23.70;;;;;;5053935;28;20409;-78
2023/09/14 12:13:12;;;;;;;16.95;8.93;;;22.00;24.10;;;;;;5054358;28;20385;-78
2023/09/14 12:15:38;;;;;;;15.27;9.10;;;22.00;25.10;;;;;;5054127;28;20382;-78
2023/09/14 12:18:04;;;;;;;13.80;8.95;;;22.00;25.60;;;;;;5034536;28;20392;-77
2023/09/14 12:20:32;;;;;;;14.88;9.30;;;21.70;25.30;;;;;;5054103;28;20400;-78
2023/09/14 12:22:57;;;;;;;15.20;10.07;;;21.40;25.20;;;;;;5055110;28;20441;-79
2023/09/14 12:25:23;;;;;;;12.27;8.70;;;21.30;26.10;;;;;;5035608;28;20897;-79
2023/09/14 12:27:49;;;;;;;15.88;8.43;;;21.30;26.80;;;;;;5053840;28;20413;-79
2023/09/14 12:30:16;;;;;;;13.27;9.30;;;21.20;27.30;;;;;;5053009;28;20438;-77
2023/09/14 12:32:42;;;;;;;13.00;9.43;;;21.00;27.90;;;;;;5053998;28;20522;-78
2023/09/14 12:35:12;;;;;;;14.30;9.43;;;20.90;27.70;;;;;;5055097;28;20397;-78
2023/09/14 12:37:39;;;;;;;13.30;9.30;;;20.80;26.80;;;;;;5052327;28;20477;-79
2023/09/14 12:40:10;;;;;;;13.00;9.23;;;;;;;;;;5057675;28;20449;-79